sensor_id;sensor_type;location;lat;lon;timestamp;temperature;humidity
14985;DHT22;7588;62.368;25.902;2023-06-22T00:01:56;16.30;99.90
14985;DHT22;7588;62.368;25.902;2023-06-22T00:04:22;16.20;99.90
14985;DHT22;7588;62.368;25.902;2023-06-22T00:06:47;16.20;99.90
14985;DHT22;7588;62.368;25.902;2023-06-22T00:09:13;16.10;99.90
14985;DHT22;7588;62.368;25.902;2023-06-22T00:11:38;16.00;99.90
14985;DHT22;7588;62.368;25.902;2023-06-22T00:14:04;16.00;99.90
14985;DHT22;7588;62.368;25.902;2023-06-22T00:16:32;15.90;99.90
14985;DHT22;7588;62.368;25.902;2023-06-22T00:18:58;15.90;99.90
14985;DHT22;7588;62.368;25.902;2023-06-22T00:21:26;15.80;99.90
14985;DHT22;7588;62.368;25.902;2023-06-22T00:23:52;15.80;99.90
14985;DHT22;7588;62.368;25.902;2023-06-22T00:26:18;15.70;99.90
14985;DHT22;7588;62.368;25.902;2023-06-22T00:28:44;15.70;99.90
14985;DHT22;7588;62.368;25.902;2023-06-22T00:31:10;15.60;99.90
14985;DHT22;7588;62.368;25.902;2023-06-22T00:33:35;15.50;99.90
14985;DHT22;7588;62.368;25.902;2023-06-22T00:36:01;15.50;99.90
14985;DHT22;7588;62.368;25.902;2023-06-22T00:38:28;15.40;99.90
14985;DHT22;7588;62.368;25.902;2023-06-22T00:40:54;15.30;99.90
14985;DHT22;7588;62.368;25.902;2023-06-22T00:43:20;15.30;99.90
14985;DHT22;7588;62.368;25.902;2023-06-22T00:45:46;15.30;99.90
14985;DHT22;7588;62.368;25.902;2023-06-22T00:48:14;15.30;99.90
14985;DHT22;7588;62.368;25.902;2023-06-22T00:50:40;15.30;99.90
14985;DHT22;7588;62.368;25.902;2023-06-22T00:53:07;15.20;99.90
14985;DHT22;7588;62.368;25.902;2023-06-22T00:55:46;15.20;99.90
14985;DHT22;7588;62.368;25.902;2023-06-22T00:58:17;15.10;99.90
14985;DHT22;7588;62.368;25.902;2023-06-22T01:00:47;15.10;99.90
14985;DHT22;7588;62.368;25.902;2023-06-22T01:03:13;15.10;99.90
14985;DHT22;7588;62.368;25.902;2023-06-22T01:05:39;15.00;99.90
14985;DHT22;7588;62.368;25.902;2023-06-22T01:08:23;15.00;99.90
14985;DHT22;7588;62.368;25.902;2023-06-22T01:13:37;14.90;99.90
14985;DHT22;7588;62.368;25.902;2023-06-22T01:16:16;14.90;99.90
14985;DHT22;7588;62.368;25.902;2023-06-22T01:18:43;14.90;99.90
14985;DHT22;7588;62.368;25.902;2023-06-22T01:21:14;14.80;99.90
14985;DHT22;7588;62.368;25.902;2023-06-22T01:26:43;14.80;99.90
14985;DHT22;7588;62.368;25.902;2023-06-22T01:29:15;14.80;99.90
14985;DHT22;7588;62.368;25.902;2023-06-22T01:31:42;14.80;99.90
14985;DHT22;7588;62.368;25.902;2023-06-22T01:34:10;14.80;99.90
14985;DHT22;7588;62.368;25.902;2023-06-22T01:36:36;14.80;99.90
14985;DHT22;7588;62.368;25.902;2023-06-22T01:39:04;14.80;99.90
14985;DHT22;7588;62.368;25.902;2023-06-22T01:41:35;14.80;99.90
14985;DHT22;7588;62.368;25.902;2023-06-22T01:44:06;14.80;99.90
14985;DHT22;7588;62.368;25.902;2023-06-22T01:46:34;14.70;99.90
14985;DHT22;7588;62.368;25.902;2023-06-22T01:49:02;14.70;99.90
14985;DHT22;7588;62.368;25.902;2023-06-22T01:51:28;14.70;99.90
14985;DHT22;7588;62.368;25.902;2023-06-22T01:53:53;14.70;99.90
14985;DHT22;7588;62.368;25.902;2023-06-22T01:56:19;14.70;99.90
14985;DHT22;7588;62.368;25.902;2023-06-22T01:59:01;14.70;99.90
14985;DHT22;7588;62.368;25.902;2023-06-22T02:01:35;14.70;99.90
14985;DHT22;7588;62.368;25.902;2023-06-22T02:04:08;14.80;99.90
14985;DHT22;7588;62.368;25.902;2023-06-22T02:06:39;14.80;99.90
14985;DHT22;7588;62.368;25.902;2023-06-22T02:09:14;14.80;99.90
14985;DHT22;7588;62.368;25.902;2023-06-22T02:11:43;14.80;99.90
14985;DHT22;7588;62.368;25.902;2023-06-22T02:14:10;14.80;99.90
14985;DHT22;7588;62.368;25.902;2023-06-22T02:16:36;14.80;99.90
14985;DHT22;7588;62.368;25.902;2023-06-22T02:19:03;14.80;99.90
14985;DHT22;7588;62.368;25.902;2023-06-22T02:21:29;14.80;99.90
14985;DHT22;7588;62.368;25.902;2023-06-22T02:23:56;14.90;99.90
14985;DHT22;7588;62.368;25.902;2023-06-22T02:26:22;14.90;99.90
14985;DHT22;7588;62.368;25.902;2023-06-22T02:28:49;15.10;99.90
14985;DHT22;7588;62.368;25.902;2023-06-22T02:31:15;15.10;99.90
14985;DHT22;7588;62.368;25.902;2023-06-22T02:33:41;15.10;99.90
14985;DHT22;7588;62.368;25.902;2023-06-22T02:36:07;15.20;99.90
14985;DHT22;7588;62.368;25.902;2023-06-22T02:38:37;15.20;99.90
14985;DHT22;7588;62.368;25.902;2023-06-22T02:41:03;15.30;99.90
14985;DHT22;7588;62.368;25.902;2023-06-22T02:43:29;15.30;99.90
14985;DHT22;7588;62.368;25.902;2023-06-22T02:45:55;15.30;99.90
14985;DHT22;7588;62.368;25.902;2023-06-22T02:48:21;15.40;99.90
14985;DHT22;7588;62.368;25.902;2023-06-22T02:50:46;15.40;99.90
14985;DHT22;7588;62.368;25.902;2023-06-22T02:53:12;15.50;99.90
14985;DHT22;7588;62.368;25.902;2023-06-22T02:55:38;15.60;99.90
14985;DHT22;7588;62.368;25.902;2023-06-22T02:58:05;15.70;99.90
14985;DHT22;7588;62.368;25.902;2023-06-22T03:00:31;15.80;99.90
14985;DHT22;7588;62.368;25.902;2023-06-22T03:02:57;15.80;99.90
14985;DHT22;7588;62.368;25.902;2023-06-22T03:05:23;15.90;99.90
14985;DHT22;7588;62.368;25.902;2023-06-22T03:07:49;16.00;99.90
14985;DHT22;7588;62.368;25.902;2023-06-22T03:10:16;16.10;99.90
14985;DHT22;7588;62.368;25.902;2023-06-22T03:12:43;16.30;99.90
14985;DHT22;7588;62.368;25.902;2023-06-22T03:15:11;16.30;99.90
14985;DHT22;7588;62.368;25.902;2023-06-22T03:17:38;16.40;99.90
14985;DHT22;7588;62.368;25.902;2023-06-22T03:20:05;16.50;99.90
14985;DHT22;7588;62.368;25.902;2023-06-22T03:22:35;16.60;99.90
14985;DHT22;7588;62.368;25.902;2023-06-22T03:25:01;16.70;99.90
14985;DHT22;7588;62.368;25.902;2023-06-22T03:27:27;16.80;99.90
14985;DHT22;7588;62.368;25.902;2023-06-22T03:29:53;16.90;99.90
14985;DHT22;7588;62.368;25.902;2023-06-22T03:32:18;17.00;99.90
14985;DHT22;7588;62.368;25.902;2023-06-22T03:34:44;17.10;99.90
14985;DHT22;7588;62.368;25.902;2023-06-22T03:37:15;17.30;99.90
14985;DHT22;7588;62.368;25.902;2023-06-22T03:39:41;17.40;99.90
14985;DHT22;7588;62.368;25.902;2023-06-22T03:42:07;17.50;99.90
14985;DHT22;7588;62.368;25.902;2023-06-22T03:44:34;17.60;99.90
14985;DHT22;7588;62.368;25.902;2023-06-22T03:47:02;17.80;99.90
14985;DHT22;7588;62.368;25.902;2023-06-22T03:49:28;17.90;99.90
14985;DHT22;7588;62.368;25.902;2023-06-22T03:51:53;18.00;99.90
14985;DHT22;7588;62.368;25.902;2023-06-22T03:54:19;18.10;99.90
14985;DHT22;7588;62.368;25.902;2023-06-22T03:56:45;18.30;99.90
14985;DHT22;7588;62.368;25.902;2023-06-22T03:59:10;18.40;99.90
14985;DHT22;7588;62.368;25.902;2023-06-22T04:01:36;18.50;99.90
14985;DHT22;7588;62.368;25.902;2023-06-22T04:04:05;18.80;99.90
14985;DHT22;7588;62.368;25.902;2023-06-22T04:06:31;19.20;99.90
14985;DHT22;7588;62.368;25.902;2023-06-22T04:08:56;19.60;99.90
14985;DHT22;7588;62.368;25.902;2023-06-22T04:11:22;19.90;99.90
14985;DHT22;7588;62.368;25.902;2023-06-22T04:13:48;20.10;99.90
14985;DHT22;7588;62.368;25.902;2023-06-22T04:16:14;20.10;99.90
14985;DHT22;7588;62.368;25.902;2023-06-22T04:18:40;20.10;99.90
14985;DHT22;7588;62.368;25.902;2023-06-22T04:21:07;20.10;99.90
14985;DHT22;7588;62.368;25.902;2023-06-22T04:23:33;20.40;99.90
14985;DHT22;7588;62.368;25.902;2023-06-22T04:25:58;21.10;99.90
14985;DHT22;7588;62.368;25.902;2023-06-22T04:28:24;21.50;99.90
14985;DHT22;7588;62.368;25.902;2023-06-22T04:30:50;21.60;99.90
14985;DHT22;7588;62.368;25.902;2023-06-22T04:33:16;21.90;99.90
14985;DHT22;7588;62.368;25.902;2023-06-22T04:35:45;22.60;99.90
14985;DHT22;7588;62.368;25.902;2023-06-22T04:38:12;23.50;99.90
14985;DHT22;7588;62.368;25.902;2023-06-22T04:40:39;24.20;97.40
14985;DHT22;7588;62.368;25.902;2023-06-22T04:43:05;25.00;93.30
14985;DHT22;7588;62.368;25.902;2023-06-22T04:45:32;25.60;92.00
14985;DHT22;7588;62.368;25.902;2023-06-22T04:47:58;26.30;86.80
14985;DHT22;7588;62.368;25.902;2023-06-22T04:50:24;26.80;84.40
14985;DHT22;7588;62.368;25.902;2023-06-22T04:52:50;27.20;81.40
14985;DHT22;7588;62.368;25.902;2023-06-22T04:55:16;27.60;77.00
14985;DHT22;7588;62.368;25.902;2023-06-22T04:57:44;27.50;78.60
14985;DHT22;7588;62.368;25.902;2023-06-22T05:00:15;27.80;70.40
14985;DHT22;7588;62.368;25.902;2023-06-22T05:02:43;28.00;65.00
14985;DHT22;7588;62.368;25.902;2023-06-22T05:05:10;28.20;64.40
14985;DHT22;7588;62.368;25.902;2023-06-22T05:07:39;28.40;65.70
14985;DHT22;7588;62.368;25.902;2023-06-22T05:10:11;28.50;68.20
14985;DHT22;7588;62.368;25.902;2023-06-22T05:12:39;29.40;60.40
14985;DHT22;7588;62.368;25.902;2023-06-22T05:15:07;29.60;60.50
14985;DHT22;7588;62.368;25.902;2023-06-22T05:17:32;29.40;59.30
14985;DHT22;7588;62.368;25.902;2023-06-22T05:19:58;29.60;59.20
14985;DHT22;7588;62.368;25.902;2023-06-22T05:22:24;29.30;60.60
14985;DHT22;7588;62.368;25.902;2023-06-22T05:24:50;29.20;60.50
14985;DHT22;7588;62.368;25.902;2023-06-22T05:27:15;29.10;63.10
14985;DHT22;7588;62.368;25.902;2023-06-22T05:29:41;29.40;60.30
14985;DHT22;7588;62.368;25.902;2023-06-22T05:32:08;29.40;63.90
14985;DHT22;7588;62.368;25.902;2023-06-22T05:34:34;29.60;61.80
14985;DHT22;7588;62.368;25.902;2023-06-22T05:37:00;29.80;59.50
14985;DHT22;7588;62.368;25.902;2023-06-22T05:39:25;29.50;59.10
14985;DHT22;7588;62.368;25.902;2023-06-22T05:41:52;29.60;62.90
14985;DHT22;7588;62.368;25.902;2023-06-22T05:44:18;29.60;64.50
14985;DHT22;7588;62.368;25.902;2023-06-22T05:46:44;29.80;62.80
14985;DHT22;7588;62.368;25.902;2023-06-22T05:49:12;30.20;58.30
14985;DHT22;7588;62.368;25.902;2023-06-22T05:51:38;30.00;58.70
14985;DHT22;7588;62.368;25.902;2023-06-22T05:54:04;30.20;60.10
14985;DHT22;7588;62.368;25.902;2023-06-22T05:56:30;30.40;59.30
14985;DHT22;7588;62.368;25.902;2023-06-22T05:58:56;30.60;55.60
14985;DHT22;7588;62.368;25.902;2023-06-22T06:01:21;30.50;55.70
14985;DHT22;7588;62.368;25.902;2023-06-22T06:03:47;30.70;58.40
14985;DHT22;7588;62.368;25.902;2023-06-22T06:06:15;30.90;58.50
14985;DHT22;7588;62.368;25.902;2023-06-22T06:08:41;31.30;56.60
14985;DHT22;7588;62.368;25.902;2023-06-22T06:11:06;30.90;57.60
14985;DHT22;7588;62.368;25.902;2023-06-22T06:13:32;30.60;58.90
14985;DHT22;7588;62.368;25.902;2023-06-22T06:15:58;30.10;58.40
14985;DHT22;7588;62.368;25.902;2023-06-22T06:18:25;30.00;58.50
14985;DHT22;7588;62.368;25.902;2023-06-22T06:20:50;30.10;59.10
14985;DHT22;7588;62.368;25.902;2023-06-22T06:23:16;30.20;58.10
14985;DHT22;7588;62.368;25.902;2023-06-22T06:25:42;30.50;58.10
14985;DHT22;7588;62.368;25.902;2023-06-22T06:28:08;30.70;57.90
14985;DHT22;7588;62.368;25.902;2023-06-22T06:30:33;30.20;58.70
14985;DHT22;7588;62.368;25.902;2023-06-22T06:33:00;30.10;58.20
14985;DHT22;7588;62.368;25.902;2023-06-22T06:35:26;29.90;58.30
14985;DHT22;7588;62.368;25.902;2023-06-22T06:37:51;29.70;59.00
14985;DHT22;7588;62.368;25.902;2023-06-22T06:40:17;29.30;58.30
14985;DHT22;7588;62.368;25.902;2023-06-22T06:42:45;28.90;57.70
14985;DHT22;7588;62.368;25.902;2023-06-22T06:45:12;29.30;59.50
14985;DHT22;7588;62.368;25.902;2023-06-22T06:47:39;29.60;57.60
14985;DHT22;7588;62.368;25.902;2023-06-22T06:50:05;30.40;57.00
14985;DHT22;7588;62.368;25.902;2023-06-22T06:52:31;30.70;58.30
14985;DHT22;7588;62.368;25.902;2023-06-22T06:54:58;31.20;55.90
14985;DHT22;7588;62.368;25.902;2023-06-22T06:57:24;31.20;56.50
14985;DHT22;7588;62.368;25.902;2023-06-22T06:59:54;31.30;56.20
14985;DHT22;7588;62.368;25.902;2023-06-22T07:02:21;31.30;56.90
14985;DHT22;7588;62.368;25.902;2023-06-22T07:04:47;31.30;56.60
14985;DHT22;7588;62.368;25.902;2023-06-22T07:07:13;31.60;58.20
14985;DHT22;7588;62.368;25.902;2023-06-22T07:09:39;31.80;56.20
14985;DHT22;7588;62.368;25.902;2023-06-22T07:12:05;32.00;55.20
14985;DHT22;7588;62.368;25.902;2023-06-22T07:14:31;32.00;55.40
14985;DHT22;7588;62.368;25.902;2023-06-22T07:16:57;32.10;55.30
14985;DHT22;7588;62.368;25.902;2023-06-22T07:19:27;32.30;55.10
14985;DHT22;7588;62.368;25.902;2023-06-22T07:21:53;32.30;55.20
14985;DHT22;7588;62.368;25.902;2023-06-22T07:24:20;32.40;57.40
14985;DHT22;7588;62.368;25.902;2023-06-22T07:26:47;32.20;53.50
14985;DHT22;7588;62.368;25.902;2023-06-22T07:29:18;32.50;54.50
14985;DHT22;7588;62.368;25.902;2023-06-22T07:31:45;32.40;53.60
14985;DHT22;7588;62.368;25.902;2023-06-22T07:34:11;32.10;53.30
14985;DHT22;7588;62.368;25.902;2023-06-22T07:36:37;31.60;55.60
14985;DHT22;7588;62.368;25.902;2023-06-22T07:39:03;31.60;55.90
14985;DHT22;7588;62.368;25.902;2023-06-22T07:41:29;31.60;54.40
14985;DHT22;7588;62.368;25.902;2023-06-22T07:43:55;31.60;55.90
14985;DHT22;7588;62.368;25.902;2023-06-22T07:46:22;31.40;54.10
14985;DHT22;7588;62.368;25.902;2023-06-22T07:48:47;31.20;54.10
14985;DHT22;7588;62.368;25.902;2023-06-22T07:51:13;31.00;54.90
14985;DHT22;7588;62.368;25.902;2023-06-22T07:53:41;30.30;54.30
14985;DHT22;7588;62.368;25.902;2023-06-22T07:56:08;29.90;56.10
14985;DHT22;7588;62.368;25.902;2023-06-22T07:58:35;29.50;57.80
14985;DHT22;7588;62.368;25.902;2023-06-22T08:01:01;29.50;59.30
14985;DHT22;7588;62.368;25.902;2023-06-22T08:03:27;29.80;58.80
14985;DHT22;7588;62.368;25.902;2023-06-22T08:05:52;30.20;56.50
14985;DHT22;7588;62.368;25.902;2023-06-22T08:08:18;30.30;56.50
14985;DHT22;7588;62.368;25.902;2023-06-22T08:10:43;30.50;57.90
14985;DHT22;7588;62.368;25.902;2023-06-22T08:13:10;31.00;58.70
14985;DHT22;7588;62.368;25.902;2023-06-22T08:15:36;31.10;56.70
14985;DHT22;7588;62.368;25.902;2023-06-22T08:18:01;30.80;59.00
14985;DHT22;7588;62.368;25.902;2023-06-22T08:20:27;31.10;57.70
14985;DHT22;7588;62.368;25.902;2023-06-22T08:22:54;31.50;56.80
14985;DHT22;7588;62.368;25.902;2023-06-22T08:25:20;31.50;56.50
14985;DHT22;7588;62.368;25.902;2023-06-22T08:27:46;31.50;54.10
14985;DHT22;7588;62.368;25.902;2023-06-22T08:30:13;31.60;54.00
14985;DHT22;7588;62.368;25.902;2023-06-22T08:32:39;31.80;53.70
14985;DHT22;7588;62.368;25.902;2023-06-22T08:35:05;31.60;55.80
14985;DHT22;7588;62.368;25.902;2023-06-22T08:37:33;32.00;55.00
14985;DHT22;7588;62.368;25.902;2023-06-22T08:40:01;32.30;54.50
14985;DHT22;7588;62.368;25.902;2023-06-22T08:42:29;32.30;56.00
14985;DHT22;7588;62.368;25.902;2023-06-22T08:44:55;31.90;58.20
14985;DHT22;7588;62.368;25.902;2023-06-22T08:47:21;32.20;52.20
14985;DHT22;7588;62.368;25.902;2023-06-22T08:49:48;32.20;54.20
14985;DHT22;7588;62.368;25.902;2023-06-22T08:52:14;32.40;55.50
14985;DHT22;7588;62.368;25.902;2023-06-22T08:54:40;32.00;54.50
14985;DHT22;7588;62.368;25.902;2023-06-22T08:57:06;32.30;55.60
14985;DHT22;7588;62.368;25.902;2023-06-22T08:59:32;32.20;54.20
14985;DHT22;7588;62.368;25.902;2023-06-22T09:01:58;32.30;53.50
14985;DHT22;7588;62.368;25.902;2023-06-22T09:04:24;32.00;54.30
14985;DHT22;7588;62.368;25.902;2023-06-22T09:06:50;31.60;53.90
14985;DHT22;7588;62.368;25.902;2023-06-22T09:09:18;31.50;55.60
14985;DHT22;7588;62.368;25.902;2023-06-22T09:11:44;31.40;57.00
14985;DHT22;7588;62.368;25.902;2023-06-22T09:14:10;31.30;55.50
14985;DHT22;7588;62.368;25.902;2023-06-22T09:16:36;31.30;56.20
14985;DHT22;7588;62.368;25.902;2023-06-22T09:19:02;31.30;55.90
14985;DHT22;7588;62.368;25.902;2023-06-22T09:21:28;31.00;56.90
14985;DHT22;7588;62.368;25.902;2023-06-22T09:23:54;30.60;56.80
14985;DHT22;7588;62.368;25.902;2023-06-22T09:26:20;30.20;56.20
14985;DHT22;7588;62.368;25.902;2023-06-22T09:28:46;29.70;58.30
14985;DHT22;7588;62.368;25.902;2023-06-22T09:31:12;29.40;59.40
14985;DHT22;7588;62.368;25.902;2023-06-22T09:33:40;29.30;60.60
14985;DHT22;7588;62.368;25.902;2023-06-22T09:36:06;29.10;62.30
14985;DHT22;7588;62.368;25.902;2023-06-22T09:38:37;29.10;59.10
14985;DHT22;7588;62.368;25.902;2023-06-22T09:41:04;29.00;62.10
14985;DHT22;7588;62.368;25.902;2023-06-22T09:43:31;29.10;62.70
14985;DHT22;7588;62.368;25.902;2023-06-22T09:45:58;29.00;60.20
14985;DHT22;7588;62.368;25.902;2023-06-22T09:48:23;29.00;59.40
14985;DHT22;7588;62.368;25.902;2023-06-22T09:50:49;29.20;60.40
14985;DHT22;7588;62.368;25.902;2023-06-22T09:53:15;29.60;61.70
14985;DHT22;7588;62.368;25.902;2023-06-22T09:55:41;30.00;58.50
14985;DHT22;7588;62.368;25.902;2023-06-22T09:58:06;30.30;57.30
14985;DHT22;7588;62.368;25.902;2023-06-22T10:00:32;30.50;57.40
14985;DHT22;7588;62.368;25.902;2023-06-22T10:02:58;30.80;56.50
14985;DHT22;7588;62.368;25.902;2023-06-22T10:05:24;30.90;56.80
14985;DHT22;7588;62.368;25.902;2023-06-22T10:07:50;31.20;56.20
14985;DHT22;7588;62.368;25.902;2023-06-22T10:10:16;31.50;55.30
14985;DHT22;7588;62.368;25.902;2023-06-22T10:13:08;31.90;56.60
14985;DHT22;7588;62.368;25.902;2023-06-22T10:15:38;31.60;55.40
14985;DHT22;7588;62.368;25.902;2023-06-22T10:18:03;31.30;56.40
14985;DHT22;7588;62.368;25.902;2023-06-22T10:20:29;31.30;55.20
14985;DHT22;7588;62.368;25.902;2023-06-22T10:22:55;31.30;56.70
14985;DHT22;7588;62.368;25.902;2023-06-22T10:25:21;31.30;55.80
14985;DHT22;7588;62.368;25.902;2023-06-22T10:27:48;31.20;57.30
14985;DHT22;7588;62.368;25.902;2023-06-22T10:30:14;30.80;55.90
14985;DHT22;7588;62.368;25.902;2023-06-22T10:32:40;30.40;57.50
14985;DHT22;7588;62.368;25.902;2023-06-22T10:35:06;29.90;58.50
14985;DHT22;7588;62.368;25.902;2023-06-22T10:37:32;29.50;58.80
14985;DHT22;7588;62.368;25.902;2023-06-22T10:39:58;29.00;60.00
14985;DHT22;7588;62.368;25.902;2023-06-22T10:42:24;28.70;62.60
14985;DHT22;7588;62.368;25.902;2023-06-22T10:44:50;28.40;62.80
14985;DHT22;7588;62.368;25.902;2023-06-22T10:47:15;28.20;65.00
14985;DHT22;7588;62.368;25.902;2023-06-22T10:49:41;28.20;63.70
14985;DHT22;7588;62.368;25.902;2023-06-22T10:52:08;28.00;62.80
14985;DHT22;7588;62.368;25.902;2023-06-22T10:54:35;28.10;63.00
14985;DHT22;7588;62.368;25.902;2023-06-22T10:57:01;27.90;62.40
14985;DHT22;7588;62.368;25.902;2023-06-22T10:59:27;27.90;62.70
14985;DHT22;7588;62.368;25.902;2023-06-22T11:01:55;28.10;63.10
14985;DHT22;7588;62.368;25.902;2023-06-22T11:04:21;28.30;62.10
14985;DHT22;7588;62.368;25.902;2023-06-22T11:06:48;28.70;62.60
14985;DHT22;7588;62.368;25.902;2023-06-22T11:09:15;29.00;62.50
14985;DHT22;7588;62.368;25.902;2023-06-22T11:11:50;29.40;61.30
14985;DHT22;7588;62.368;25.902;2023-06-22T11:14:16;29.50;63.60
14985;DHT22;7588;62.368;25.902;2023-06-22T11:16:42;29.80;63.70
14985;DHT22;7588;62.368;25.902;2023-06-22T11:19:08;30.00;60.80
14985;DHT22;7588;62.368;25.902;2023-06-22T11:21:33;30.00;59.30
14985;DHT22;7588;62.368;25.902;2023-06-22T11:23:59;29.70;61.90
14985;DHT22;7588;62.368;25.902;2023-06-22T11:26:25;29.40;60.70
14985;DHT22;7588;62.368;25.902;2023-06-22T11:28:54;29.20;62.80
14985;DHT22;7588;62.368;25.902;2023-06-22T11:31:20;28.90;62.60
14985;DHT22;7588;62.368;25.902;2023-06-22T11:33:45;28.80;62.10
14985;DHT22;7588;62.368;25.902;2023-06-22T11:36:12;28.70;62.80
14985;DHT22;7588;62.368;25.902;2023-06-22T11:38:38;28.40;63.10
14985;DHT22;7588;62.368;25.902;2023-06-22T11:41:08;28.20;64.20
14985;DHT22;7588;62.368;25.902;2023-06-22T11:43:34;28.00;65.30
14985;DHT22;7588;62.368;25.902;2023-06-22T11:46:03;27.80;65.90
14985;DHT22;7588;62.368;25.902;2023-06-22T11:48:29;27.60;67.40
14985;DHT22;7588;62.368;25.902;2023-06-22T11:50:55;27.40;67.00
14985;DHT22;7588;62.368;25.902;2023-06-22T11:53:21;27.40;67.30
14985;DHT22;7588;62.368;25.902;2023-06-22T11:55:47;27.30;69.50
14985;DHT22;7588;62.368;25.902;2023-06-22T11:58:14;27.30;70.50
14985;DHT22;7588;62.368;25.902;2023-06-22T12:00:40;27.10;72.00
14985;DHT22;7588;62.368;25.902;2023-06-22T12:03:07;27.00;71.10
14985;DHT22;7588;62.368;25.902;2023-06-22T12:05:32;27.20;71.80
14985;DHT22;7588;62.368;25.902;2023-06-22T12:07:58;27.20;71.20
14985;DHT22;7588;62.368;25.902;2023-06-22T12:10:25;27.20;70.00
14985;DHT22;7588;62.368;25.902;2023-06-22T12:12:51;27.20;71.50
14985;DHT22;7588;62.368;25.902;2023-06-22T12:15:17;27.20;73.10
14985;DHT22;7588;62.368;25.902;2023-06-22T12:17:43;27.30;71.60
14985;DHT22;7588;62.368;25.902;2023-06-22T12:20:08;27.30;71.40
14985;DHT22;7588;62.368;25.902;2023-06-22T12:22:35;27.10;71.00
14985;DHT22;7588;62.368;25.902;2023-06-22T12:25:01;26.70;72.10
14985;DHT22;7588;62.368;25.902;2023-06-22T12:27:27;26.40;73.50
14985;DHT22;7588;62.368;25.902;2023-06-22T12:29:52;26.10;75.20
14985;DHT22;7588;62.368;25.902;2023-06-22T12:32:18;26.00;75.70
14985;DHT22;7588;62.368;25.902;2023-06-22T12:34:44;25.80;75.00
14985;DHT22;7588;62.368;25.902;2023-06-22T12:37:10;25.50;75.50
14985;DHT22;7588;62.368;25.902;2023-06-22T12:39:36;25.50;75.40
14985;DHT22;7588;62.368;25.902;2023-06-22T12:42:02;25.50;75.40
14985;DHT22;7588;62.368;25.902;2023-06-22T12:44:28;25.50;76.90
14985;DHT22;7588;62.368;25.902;2023-06-22T12:46:53;25.30;75.90
14985;DHT22;7588;62.368;25.902;2023-06-22T12:49:19;25.20;77.90
14985;DHT22;7588;62.368;25.902;2023-06-22T12:51:45;25.30;77.20
14985;DHT22;7588;62.368;25.902;2023-06-22T12:54:11;25.30;77.20
14985;DHT22;7588;62.368;25.902;2023-06-22T12:56:38;25.30;78.10
14985;DHT22;7588;62.368;25.902;2023-06-22T12:59:06;25.10;78.00
14985;DHT22;7588;62.368;25.902;2023-06-22T13:01:32;24.80;79.70
14985;DHT22;7588;62.368;25.902;2023-06-22T13:03:58;24.60;80.10
14985;DHT22;7588;62.368;25.902;2023-06-22T13:06:25;24.40;81.40
14985;DHT22;7588;62.368;25.902;2023-06-22T13:08:51;24.30;81.50
14985;DHT22;7588;62.368;25.902;2023-06-22T13:11:17;24.30;82.30
14985;DHT22;7588;62.368;25.902;2023-06-22T13:13:44;24.20;81.80
14985;DHT22;7588;62.368;25.902;2023-06-22T13:16:10;24.20;82.10
14985;DHT22;7588;62.368;25.902;2023-06-22T13:18:35;24.20;82.60
14985;DHT22;7588;62.368;25.902;2023-06-22T13:21:02;24.20;82.50
14985;DHT22;7588;62.368;25.902;2023-06-22T13:23:27;24.30;82.80
14985;DHT22;7588;62.368;25.902;2023-06-22T13:25:53;24.10;84.20
14985;DHT22;7588;62.368;25.902;2023-06-22T13:28:19;24.00;86.00
14985;DHT22;7588;62.368;25.902;2023-06-22T13:30:46;23.80;86.60
14985;DHT22;7588;62.368;25.902;2023-06-22T13:33:13;23.70;87.80
14985;DHT22;7588;62.368;25.902;2023-06-22T13:35:39;23.70;90.30
14985;DHT22;7588;62.368;25.902;2023-06-22T13:38:05;23.80;90.30
14985;DHT22;7588;62.368;25.902;2023-06-22T13:40:31;23.80;90.00
14985;DHT22;7588;62.368;25.902;2023-06-22T13:42:56;23.90;90.50
14985;DHT22;7588;62.368;25.902;2023-06-22T13:45:22;23.80;91.80
14985;DHT22;7588;62.368;25.902;2023-06-22T13:47:48;23.80;91.90
14985;DHT22;7588;62.368;25.902;2023-06-22T13:50:14;23.80;91.70
14985;DHT22;7588;62.368;25.902;2023-06-22T13:52:40;23.80;91.70
14985;DHT22;7588;62.368;25.902;2023-06-22T13:55:06;23.80;92.40
14985;DHT22;7588;62.368;25.902;2023-06-22T13:57:33;23.60;93.00
14985;DHT22;7588;62.368;25.902;2023-06-22T13:59:59;23.50;94.10
14985;DHT22;7588;62.368;25.902;2023-06-22T14:02:28;23.30;94.50
14985;DHT22;7588;62.368;25.902;2023-06-22T14:04:54;23.30;95.50
14985;DHT22;7588;62.368;25.902;2023-06-22T14:07:19;23.30;95.30
14985;DHT22;7588;62.368;25.902;2023-06-22T14:09:46;23.10;95.80
14985;DHT22;7588;62.368;25.902;2023-06-22T14:12:12;22.80;96.70
14985;DHT22;7588;62.368;25.902;2023-06-22T14:14:38;22.80;97.20
14985;DHT22;7588;62.368;25.902;2023-06-22T14:17:05;22.70;97.70
14985;DHT22;7588;62.368;25.902;2023-06-22T14:19:30;22.50;98.20
14985;DHT22;7588;62.368;25.902;2023-06-22T14:21:59;22.40;98.80
14985;DHT22;7588;62.368;25.902;2023-06-22T14:24:25;22.30;99.90
14985;DHT22;7588;62.368;25.902;2023-06-22T14:26:50;22.20;99.90
14985;DHT22;7588;62.368;25.902;2023-06-22T14:29:16;22.00;99.90
14985;DHT22;7588;62.368;25.902;2023-06-22T14:31:45;21.90;99.90
14985;DHT22;7588;62.368;25.902;2023-06-22T14:34:11;21.90;99.90
14985;DHT22;7588;62.368;25.902;2023-06-22T14:36:37;21.80;99.90
14985;DHT22;7588;62.368;25.902;2023-06-22T14:39:02;21.70;99.90
14985;DHT22;7588;62.368;25.902;2023-06-22T14:41:30;21.60;99.90
14985;DHT22;7588;62.368;25.902;2023-06-22T14:43:56;21.60;99.90
14985;DHT22;7588;62.368;25.902;2023-06-22T14:46:22;21.60;99.90
14985;DHT22;7588;62.368;25.902;2023-06-22T14:48:48;21.50;99.90
14985;DHT22;7588;62.368;25.902;2023-06-22T14:51:14;21.60;99.90
14985;DHT22;7588;62.368;25.902;2023-06-22T14:53:40;21.60;99.90
14985;DHT22;7588;62.368;25.902;2023-06-22T14:56:06;21.70;99.90
14985;DHT22;7588;62.368;25.902;2023-06-22T14:58:32;21.60;99.90
14985;DHT22;7588;62.368;25.902;2023-06-22T15:01:02;21.60;99.90
14985;DHT22;7588;62.368;25.902;2023-06-22T15:03:29;21.60;99.90
14985;DHT22;7588;62.368;25.902;2023-06-22T15:05:57;21.60;99.90
14985;DHT22;7588;62.368;25.902;2023-06-22T15:08:23;21.60;99.90
14985;DHT22;7588;62.368;25.902;2023-06-22T15:10:50;21.60;99.90
14985;DHT22;7588;62.368;25.902;2023-06-22T15:13:16;21.50;99.90
14985;DHT22;7588;62.368;25.902;2023-06-22T15:15:43;21.50;99.90
14985;DHT22;7588;62.368;25.902;2023-06-22T15:18:08;21.40;99.90
14985;DHT22;7588;62.368;25.902;2023-06-22T15:20:34;21.40;99.90
14985;DHT22;7588;62.368;25.902;2023-06-22T15:23:00;21.30;99.90
14985;DHT22;7588;62.368;25.902;2023-06-22T15:25:25;21.20;99.90
14985;DHT22;7588;62.368;25.902;2023-06-22T15:27:51;21.10;99.90
14985;DHT22;7588;62.368;25.902;2023-06-22T15:30:17;20.90;99.90
14985;DHT22;7588;62.368;25.902;2023-06-22T15:32:44;20.90;99.90